Terminal Aerodrome Forecast
Issued by NWS Pittsburgh, PA

Current Version | Previous Version | Text Only | Print | Product List | Glossary Off
Versions: 1 2 3 4 5 6 7 8 9 10 11 12 13 14 15 16 17 18 19 20 21 22 23 24 25

000
FTUS41 KPBZ 200247 AAA
TAFPIT
TAF AMD
KPIT 200247Z 2003/2106 21006KT P6SM FEW250 WS020/24045KT
     FM201400 22011G20KT P6SM SCT030
     FM202200 24008KT P6SM BKN030
     FM210400 23006KT P6SM BKN015=

USA.gov is the U.S. government's official web portal to all federal, state and local government web resources and services.